Time;durP1;ratioP1;P1;durP2;ratioP2;P2;SDS_P1;SDS_P2;PMS_P1;PMS_P2;Temp;Humidity;BMP_temperature;BMP_pressure;BME280_temperature;BME280_humidity;BME280_pressure;Samples;Min_cycle;Max_cycle;Signal;HPM_P1;HPM_P2
2022/01/17 00:00:01;;;;;;;;;;;1.70;99.90;;;;;;5063486;28;19925;-72
2022/01/17 00:02:29;;;;;;;;;;;1.70;99.90;;;;;;5063175;28;19927;-72
2022/01/17 00:04:55;;;;;;;;;;;1.70;99.90;;;;;;5063358;28;19921;-72
2022/01/17 00:07:26;;;;;;;;;;;1.70;99.90;;;;;;5063510;28;19920;-72
2022/01/17 00:09:52;;;;;;;;;;;1.70;99.90;;;;;;5063379;28;20207;-71
2022/01/17 00:12:19;;;;;;;;;;;1.70;99.90;;;;;;5062997;28;20093;-72
2022/01/17 00:14:46;;;;;;;;;;;1.70;99.90;;;;;;5063156;28;19929;-72
2022/01/17 00:17:29;;;;;;;;;;;1.70;99.90;;;;;;5063557;28;19920;-71
2022/01/17 00:19:56;;;;;;;;;;;1.70;99.90;;;;;;5063734;28;19944;-72
2022/01/17 00:22:24;;;;;;;;;;;1.60;99.90;;;;;;5063408;28;19920;-72
2022/01/17 00:24:50;;;;;;;;;;;1.70;99.90;;;;;;5063309;28;19921;-71
2022/01/17 00:27:17;;;;;;;;;;;1.60;99.90;;;;;;5063633;28;19921;-72
2022/01/17 00:29:44;;;;;;;;;;;1.60;99.90;;;;;;5063294;28;20222;-72
2022/01/17 00:32:11;;;;;;;;;;;1.60;99.90;;;;;;5063073;28;19920;-71
2022/01/17 00:34:38;;;;;;;;;;;1.50;99.90;;;;;;5063264;28;19928;-73
2022/01/17 00:37:05;;;;;;;;;;;1.60;99.90;;;;;;5063343;28;19920;-72
2022/01/17 00:39:32;;;;;;;;;;;1.50;99.90;;;;;;5063458;28;20227;-72
2022/01/17 00:41:58;;;;;;;;;;;1.50;99.90;;;;;;5064605;28;19927;-72
2022/01/17 00:44:25;;;;;;;;;;;1.50;99.90;;;;;;5066758;28;19921;-72
2022/01/17 00:46:52;;;;;;;;;;;1.50;99.90;;;;;;5067067;28;19927;-72
2022/01/17 00:49:19;;;;;;;;;;;1.50;99.90;;;;;;5066926;28;19920;-73
2022/01/17 00:51:47;;;;;;;;;;;1.50;99.90;;;;;;5066883;28;19921;-72
2022/01/17 00:54:14;;;;;;;;;;;1.50;99.90;;;;;;5066622;28;19928;-72
2022/01/17 00:56:41;;;;;;;;;;;1.50;99.90;;;;;;5066564;28;20259;-72
2022/01/17 00:59:07;;;;;;;;;;;1.50;99.90;;;;;;5066772;28;19936;-72
2022/01/17 01:01:34;;;;;;;;;;;1.50;99.90;;;;;;5066389;28;19929;-72
2022/01/17 01:04:00;;;;;;;;;;;1.40;99.90;;;;;;5066089;28;19921;-71
2022/01/17 01:06:27;;;;;;;;;;;1.40;99.90;;;;;;5066667;28;19920;-72
2022/01/17 01:08:55;;;;;;;;;;;1.50;99.90;;;;;;5066699;28;20115;-70
2022/01/17 01:11:21;;;;;;;;;;;1.40;99.90;;;;;;5066464;28;20139;-71
2022/01/17 01:13:48;;;;;;;;;;;1.40;99.90;;;;;;5066507;28;20108;-72
2022/01/17 01:16:31;;;;;;;;;;;1.40;99.90;;;;;;5066450;28;19943;-72
2022/01/17 01:27:37;;;;;;;;;;;1.40;99.90;;;;;;5055594;28;19924;-72
2022/01/17 01:30:20;;;;;;;;;;;1.50;99.90;;;;;;5062366;28;19983;-72
2022/01/17 01:32:51;;;;;;;;;;;1.40;99.90;;;;;;5065806;28;20239;-72
2022/01/17 01:35:20;;;;;;;;;;;1.40;99.90;;;;;;5065949;28;19921;-72
2022/01/17 01:37:48;;;;;;;;;;;1.40;99.90;;;;;;5066025;28;19943;-72
2022/01/17 01:40:17;;;;;;;;;;;1.40;99.90;;;;;;5066199;28;19984;-71
2022/01/17 01:42:44;;;;;;;;;;;1.40;99.90;;;;;;5065980;28;20135;-72
2022/01/17 01:45:12;;;;;;;;;;;1.40;99.90;;;;;;5065559;28;19921;-71
2022/01/17 01:47:39;;;;;;;;;;;1.40;99.90;;;;;;5065507;28;20220;-72
2022/01/17 01:50:07;;;;;;;;;;;1.50;99.90;;;;;;5065880;28;19928;-73
2022/01/17 01:52:34;;;;;;;;;;;1.50;99.90;;;;;;5065280;28;19928;-72
2022/01/17 01:55:00;;;;;;;;;;;1.50;99.90;;;;;;5064664;28;20148;-71
2022/01/17 01:57:28;;;;;;;;;;;1.50;99.90;;;;;;5065597;28;19920;-72
2022/01/17 01:59:55;;;;;;;;;;;1.50;99.90;;;;;;5065532;28;19921;-72
2022/01/17 02:02:22;;;;;;;;;;;1.50;99.90;;;;;;5065328;28;19921;-72
2022/01/17 02:04:48;;;;;;;;;;;1.50;99.90;;;;;;5064904;28;20167;-72
2022/01/17 02:07:15;;;;;;;;;;;1.40;99.90;;;;;;5065541;28;19920;-71
2022/01/17 02:09:43;;;;;;;;;;;1.40;99.90;;;;;;5065373;28;20139;-72
2022/01/17 02:12:10;;;;;;;;;;;1.40;99.90;;;;;;5064921;28;19984;-71
2022/01/17 02:14:38;;;;;;;;;;;1.40;99.90;;;;;;5064729;28;20093;-72
2022/01/17 02:17:05;;;;;;;;;;;1.50;99.90;;;;;;5065201;28;19920;-72
2022/01/17 02:19:34;;;;;;;;;;;1.50;99.90;;;;;;5065162;28;19942;-72
2022/01/17 02:22:02;;;;;;;;;;;1.50;99.90;;;;;;5064765;28;19932;-72
2022/01/17 02:24:28;;;;;;;;;;;1.40;99.90;;;;;;5064804;28;19952;-72
2022/01/17 02:26:55;;;;;;;;;;;1.40;99.90;;;;;;5065006;28;20116;-72
2022/01/17 02:29:21;;;;;;;;;;;1.50;99.90;;;;;;5065085;28;19920;-73
2022/01/17 02:31:48;;;;;;;;;;;1.40;99.90;;;;;;5064888;28;19921;-71
2022/01/17 02:34:15;;;;;;;;;;;1.50;99.90;;;;;;5063934;28;19921;-72
2022/01/17 02:36:42;;;;;;;;;;;1.40;99.90;;;;;;5064476;28;19921;-72
2022/01/17 02:39:10;;;;;;;;;;;1.40;99.90;;;;;;5064760;28;19924;-72
2022/01/17 02:41:39;;;;;;;;;;;1.40;99.90;;;;;;5063734;28;20112;-72
2022/01/17 02:44:05;;;;;;;;;;;1.30;99.90;;;;;;5064427;28;20060;-72
2022/01/17 02:46:32;;;;;;;;;;;1.30;99.90;;;;;;5064322;28;20204;-72
2022/01/17 02:49:00;;;;;;;;;;;1.30;99.90;;;;;;5064232;28;19927;-72
2022/01/17 02:51:28;;;;;;;;;;;1.30;99.90;;;;;;5064398;28;19920;-72
2022/01/17 02:53:54;;;;;;;;;;;1.30;99.90;;;;;;5058652;28;19959;-72
2022/01/17 02:56:22;;;;;;;;;;;1.40;99.90;;;;;;5063910;28;19927;-72
2022/01/17 02:58:49;;;;;;;;;;;1.30;99.90;;;;;;5064102;28;19921;-71
2022/01/17 03:01:17;;;;;;;;;;;1.30;99.90;;;;;;5063524;28;20011;-72
2022/01/17 03:03:44;;;;;;;;;;;1.30;99.90;;;;;;5056006;28;19921;-71
2022/01/17 03:06:11;;;;;;;;;;;1.30;99.90;;;;;;5062630;28;19959;-72
2022/01/17 03:08:38;;;;;;;;;;;1.30;99.90;;;;;;5063779;28;19927;-72
2022/01/17 03:11:06;;;;;;;;;;;1.30;99.90;;;;;;5064041;28;20135;-72
2022/01/17 03:13:36;;;;;;;;;;;1.30;99.90;;;;;;5063012;28;20231;-72
2022/01/17 03:16:04;;;;;;;;;;;1.30;99.90;;;;;;5063441;28;19988;-71
2022/01/17 03:18:32;;;;;;;;;;;1.30;99.90;;;;;;5064044;28;19970;-72
2022/01/17 03:21:00;;;;;;;;;;;1.30;99.90;;;;;;5063742;28;19927;-72
2022/01/17 03:23:26;;;;;;;;;;;1.30;99.90;;;;;;5063436;28;19928;-72
2022/01/17 03:25:53;;;;;;;;;;;1.30;99.90;;;;;;5063766;28;19944;-72
2022/01/17 03:28:20;;;;;;;;;;;1.30;99.90;;;;;;5062958;28;19945;-72
2022/01/17 03:30:48;;;;;;;;;;;1.20;99.90;;;;;;5063415;28;19927;-72
2022/01/17 03:33:16;;;;;;;;;;;1.20;99.90;;;;;;5062980;28;19921;-72
2022/01/17 03:35:44;;;;;;;;;;;1.20;99.90;;;;;;5062915;28;20043;-72
2022/01/17 03:38:13;;;;;;;;;;;1.20;99.90;;;;;;5063738;28;20116;-72
2022/01/17 03:40:39;;;;;;;;;;;1.30;99.90;;;;;;5062828;28;19943;-72
2022/01/17 03:43:06;;;;;;;;;;;1.30;99.90;;;;;;5063715;28;19927;-71
2022/01/17 03:45:33;;;;;;;;;;;1.30;99.90;;;;;;5063143;28;19921;-71
2022/01/17 03:48:01;;;;;;;;;;;1.20;99.90;;;;;;5063003;28;19924;-72
2022/01/17 03:50:28;;;;;;;;;;;1.30;99.90;;;;;;5063583;28;19921;-72
2022/01/17 03:52:55;;;;;;;;;;;1.20;99.90;;;;;;5063139;28;19921;-72
2022/01/17 03:55:22;;;;;;;;;;;1.30;99.90;;;;;;5062925;28;19927;-72
2022/01/17 03:57:49;;;;;;;;;;;1.20;99.90;;;;;;5062714;28;19921;-72
2022/01/17 04:00:17;;;;;;;;;;;1.20;99.90;;;;;;5063292;28;20081;-72
2022/01/17 04:02:44;;;;;;;;;;;1.20;99.90;;;;;;5059452;28;19928;-72
2022/01/17 04:05:12;;;;;;;;;;;1.30;99.90;;;;;;5062950;28;19927;-71
2022/01/17 04:07:38;;;;;;;;;;;1.20;99.90;;;;;;5063505;28;20188;-72
2022/01/17 04:10:05;;;;;;;;;;;1.20;99.90;;;;;;5062626;28;19935;-72
2022/01/17 04:12:32;;;;;;;;;;;1.20;99.90;;;;;;5085879;22;19927;-74
2022/01/17 04:14:58;;;;;;;;;;;1.20;99.90;;;;;;5062667;28;19928;-74
2022/01/17 04:17:28;;;;;;;;;;;1.20;99.90;;;;;;5065397;28;20125;-73
2022/01/17 04:20:02;;;;;;;;;;;1.10;99.90;;;;;;5066688;28;19928;-73
2022/01/17 04:22:33;;;;;;;;;;;1.10;99.90;;;;;;5067057;28;19921;-73
2022/01/17 04:25:00;;;;;;;;;;;1.10;99.90;;;;;;5066741;28;19927;-74
2022/01/17 04:27:26;;;;;;;;;;;1.10;99.90;;;;;;5066794;28;19921;-74
2022/01/17 04:29:53;;;;;;;;;;;1.00;99.90;;;;;;5066719;28;20172;-74
2022/01/17 04:32:19;;;;;;;;;;;1.00;99.90;;;;;;5066369;28;19920;-73
2022/01/17 04:34:46;;;;;;;;;;;1.00;99.90;;;;;;5066462;28;19920;-73
2022/01/17 04:37:13;;;;;;;;;;;1.00;99.90;;;;;;5066794;28;19921;-74
2022/01/17 04:39:41;;;;;;;;;;;1.10;99.90;;;;;;5066560;28;19995;-73
2022/01/17 04:42:12;;;;;;;;;;;1.00;99.90;;;;;;5066457;28;19921;-73
2022/01/17 04:47:23;;;;;;;;;;;1.00;99.90;;;;;;5066544;28;19924;-74
2022/01/17 04:49:49;;;;;;;;;;;1.00;99.90;;;;;;5066516;28;19927;-73
2022/01/17 04:52:16;;;;;;;;;;;1.00;99.90;;;;;;5066294;28;19925;-74
2022/01/17 04:54:51;;;;;;;;;;;1.00;99.90;;;;;;5066047;28;19921;-74
2022/01/17 04:57:18;;;;;;;;;;;1.00;99.90;;;;;;5066561;28;19988;-73
2022/01/17 04:59:45;;;;;;;;;;;1.00;99.90;;;;;;5066050;28;20208;-74
2022/01/17 05:02:11;;;;;;;;;;;0.90;99.90;;;;;;5065966;28;19925;-74
2022/01/17 05:04:38;;;;;;;;;;;0.90;99.90;;;;;;5065904;28;20111;-73
2022/01/17 05:07:05;;;;;;;;;;;1.00;99.90;;;;;;5065640;28;20170;-73
2022/01/17 05:09:32;;;;;;;;;;;0.90;99.90;;;;;;5066107;28;19921;-74
2022/01/17 05:12:00;;;;;;;;;;;0.80;99.90;;;;;;5065751;28;20230;-73
2022/01/17 05:14:27;;;;;;;;;;;0.90;99.90;;;;;;5065994;28;19927;-73
2022/01/17 05:17:00;;;;;;;;;;;0.90;99.90;;;;;;5066029;28;19921;-74
2022/01/17 05:22:11;;;;;;;;;;;0.90;99.90;;;;;;5065803;28;19923;-73
2022/01/17 05:24:38;;;;;;;;;;;0.90;99.90;;;;;;5065233;28;19921;-73
2022/01/17 05:27:06;;;;;;;;;;;0.90;99.90;;;;;;5062537;28;19924;-73
2022/01/17 05:29:33;;;;;;;;;;;0.90;99.90;;;;;;5074830;28;19921;-72
2022/01/17 05:31:59;;;;;;;;;;;0.90;99.90;;;;;;5076119;28;19940;-71
2022/01/17 05:34:26;;;;;;;;;;;0.90;99.90;;;;;;5077260;28;19921;-71
2022/01/17 05:36:52;;;;;;;;;;;0.90;99.90;;;;;;5077197;28;19920;-72
2022/01/17 05:39:19;;;;;;;;;;;0.90;99.90;;;;;;5069657;28;20208;-73
2022/01/17 05:41:46;;;;;;;;;;;0.90;99.90;;;;;;5066197;28;19927;-73
2022/01/17 05:44:14;;;;;;;;;;;0.90;99.90;;;;;;5065789;28;19942;-73
2022/01/17 05:46:41;;;;;;;;;;;0.90;99.90;;;;;;5065955;28;19920;-73
2022/01/17 05:49:07;;;;;;;;;;;0.80;99.90;;;;;;5065864;28;19921;-73
2022/01/17 05:51:34;;;;;;;;;;;0.80;99.90;;;;;;5052165;28;19925;-73
2022/01/17 05:54:01;;;;;;;;;;;0.90;99.90;;;;;;5046408;28;19921;-73
2022/01/17 05:56:27;;;;;;;;;;;0.90;99.90;;;;;;5046632;28;20097;-73
2022/01/17 05:58:54;;;;;;;;;;;0.90;99.90;;;;;;5051871;28;19921;-73
2022/01/17 06:01:22;;;;;;;;;;;0.80;99.90;;;;;;5065438;28;19928;-73
2022/01/17 06:03:48;;;;;;;;;;;0.90;99.90;;;;;;5065021;28;19920;-73
2022/01/17 06:06:15;;;;;;;;;;;0.80;99.90;;;;;;5065223;28;20119;-73
2022/01/17 06:08:42;;;;;;;;;;;0.80;99.90;;;;;;5065958;28;19928;-73
2022/01/17 06:11:08;;;;;;;;;;;0.80;99.90;;;;;;5065371;28;19921;-72
2022/01/17 06:13:35;;;;;;;;;;;0.80;99.90;;;;;;5065972;28;19921;-74
2022/01/17 06:16:01;;;;;;;;;;;0.80;99.90;;;;;;5045396;28;19983;-71
2022/01/17 06:18:29;;;;;;;;;;;0.80;99.90;;;;;;5045401;28;19921;-70
2022/01/17 06:20:56;;;;;;;;;;;0.80;99.90;;;;;;5045559;28;19921;-72
2022/01/17 06:23:24;;;;;;;;;;;0.80;99.90;;;;;;5045121;28;19925;-72
2022/01/17 06:25:50;;;;;;;;;;;0.80;99.90;;;;;;5045095;28;19921;-71
2022/01/17 06:28:18;;;;;;;;;;;0.80;99.90;;;;;;5044531;28;20159;-72
2022/01/17 06:30:45;;;;;;;;;;;0.80;99.90;;;;;;5045174;28;20143;-72
2022/01/17 06:33:11;;;;;;;;;;;0.80;99.90;;;;;;5045087;28;19922;-72
2022/01/17 06:35:39;;;;;;;;;;;0.80;99.90;;;;;;5044735;28;20101;-72
2022/01/17 06:38:06;;;;;;;;;;;0.70;99.90;;;;;;5044857;28;20205;-72
2022/01/17 06:40:33;;;;;;;;;;;0.80;99.90;;;;;;5045004;28;19921;-72
2022/01/17 06:42:59;;;;;;;;;;;0.80;99.90;;;;;;5044940;28;19921;-73
2022/01/17 06:45:26;;;;;;;;;;;0.80;99.90;;;;;;5044373;28;19921;-71
2022/01/17 06:47:52;;;;;;;;;;;0.80;99.90;;;;;;5052175;28;19921;-71
2022/01/17 06:50:19;;;;;;;;;;;0.80;99.90;;;;;;5064672;28;20111;-70
2022/01/17 06:52:47;;;;;;;;;;;0.80;99.90;;;;;;5064542;28;19992;-71
2022/01/17 06:55:14;;;;;;;;;;;0.80;99.90;;;;;;5063762;28;19920;-73
2022/01/17 06:57:42;;;;;;;;;;;0.80;99.90;;;;;;5063430;28;19920;-72
2022/01/17 07:00:09;;;;;;;;;;;0.80;99.90;;;;;;5064018;28;19929;-72
2022/01/17 07:02:36;;;;;;;;;;;0.90;99.90;;;;;;5064100;28;20200;-72
2022/01/17 07:05:03;;;;;;;;;;;0.90;99.90;;;;;;5063639;28;19984;-72
2022/01/17 07:07:30;;;;;;;;;;;0.90;99.90;;;;;;5057530;28;20143;-72
2022/01/17 07:09:58;;;;;;;;;;;0.90;99.90;;;;;;5063818;28;19927;-72
2022/01/17 07:12:24;;;;;;;;;;;0.90;99.90;;;;;;5063509;28;19927;-72
2022/01/17 07:14:51;;;;;;;;;;;0.90;99.90;;;;;;5063385;28;19927;-72
2022/01/17 07:17:18;;;;;;;;;;;0.90;99.90;;;;;;5063771;28;19920;-72
2022/01/17 07:19:45;;;;;;;;;;;0.90;99.90;;;;;;5046164;28;19944;-73
2022/01/17 07:22:12;;;;;;;;;;;1.00;99.90;;;;;;5044914;28;19928;-72
2022/01/17 07:24:39;;;;;;;;;;;1.00;99.90;;;;;;5042564;28;19921;-73
2022/01/17 07:27:07;;;;;;;;;;;1.00;99.90;;;;;;5042357;28;19993;-73
2022/01/17 07:29:34;;;;;;;;;;;1.00;99.90;;;;;;5044740;28;19929;-72
2022/01/17 07:32:00;;;;;;;;;;;1.10;99.90;;;;;;5045735;28;19943;-73
2022/01/17 07:34:27;;;;;;;;;;;1.00;99.90;;;;;;5059216;28;19921;-72
2022/01/17 07:36:53;;;;;;;;;;;1.00;99.90;;;;;;5062164;28;19928;-73
2022/01/17 07:39:20;;;;;;;;;;;1.00;99.90;;;;;;5049009;28;19929;-73
2022/01/17 07:41:46;;;;;;;;;;;1.00;99.90;;;;;;5043092;28;19921;-73
2022/01/17 07:44:19;;;;;;;;;;;1.00;99.90;;;;;;5042493;28;19929;-73
2022/01/17 07:46:53;;;;;;;;;;;1.10;99.90;;;;;;5049733;28;19927;-73
2022/01/17 07:49:20;;;;;;;;;;;1.10;99.90;;;;;;5056609;28;20093;-73
2022/01/17 07:51:48;;;;;;;;;;;1.10;99.90;;;;;;5061105;28;19921;-73
2022/01/17 07:54:15;;;;;;;;;;;1.20;99.90;;;;;;5046809;28;19929;-73
2022/01/17 07:56:43;;;;;;;;;;;1.20;99.90;;;;;;5043217;28;19921;-73
2022/01/17 07:59:10;;;;;;;;;;;1.20;99.90;;;;;;5055379;28;19967;-72
2022/01/17 08:01:38;;;;;;;;;;;1.20;99.90;;;;;;5062984;28;19928;-73
2022/01/17 08:04:05;;;;;;;;;;;1.10;99.90;;;;;;5046968;28;20073;-73
2022/01/17 08:06:36;;;;;;;;;;;1.20;99.90;;;;;;5060789;28;19936;-73
2022/01/17 08:09:04;;;;;;;;;;;1.20;99.90;;;;;;5062870;28;20170;-72
2022/01/17 08:11:30;;;;;;;;;;;1.10;99.90;;;;;;5049643;28;19921;-73
2022/01/17 08:13:57;;;;;;;;;;;1.10;99.90;;;;;;5042446;28;19928;-73
2022/01/17 08:16:24;;;;;;;;;;;1.10;99.90;;;;;;5046568;28;20172;-72
2022/01/17 08:18:52;;;;;;;;;;;1.10;99.90;;;;;;5062464;28;19956;-73
2022/01/17 08:21:19;;;;;;;;;;;1.10;99.90;;;;;;5062625;28;20266;-73
2022/01/17 08:23:46;;;;;;;;;;;1.10;99.90;;;;;;5047107;28;19988;-73
2022/01/17 08:26:12;;;;;;;;;;;1.10;99.90;;;;;;5043001;28;20167;-73
2022/01/17 08:28:40;;;;;;;;;;;1.20;99.90;;;;;;5052813;28;19927;-73
2022/01/17 08:31:07;;;;;;;;;;;1.20;99.90;;;;;;5062482;28;19921;-73
2022/01/17 08:33:34;;;;;;;;;;;1.20;99.90;;;;;;5053510;28;19929;-73
2022/01/17 08:36:02;;;;;;;;;;;1.20;99.90;;;;;;5042990;28;19921;-73
2022/01/17 08:38:30;;;;;;;;;;;1.30;99.90;;;;;;5042172;28;19921;-73
2022/01/17 08:40:57;;;;;;;;;;;1.30;99.90;;;;;;5042716;28;20268;-72
2022/01/17 08:43:25;;;;;;;;;;;1.30;99.90;;;;;;5042127;28;19960;-74
2022/01/17 08:45:53;;;;;;;;;;;1.30;99.90;;;;;;5048646;28;19921;-71
2022/01/17 08:48:20;;;;;;;;;;;1.40;99.90;;;;;;5063293;28;19932;-72
2022/01/17 08:50:47;;;;;;;;;;;1.40;99.90;;;;;;5062873;28;19921;-72
2022/01/17 08:53:16;;;;;;;;;;;1.40;99.90;;;;;;5062689;28;19927;-72
2022/01/17 08:55:43;;;;;;;;;;;1.40;99.90;;;;;;5061773;28;20131;-72
2022/01/17 08:58:10;;;;;;;;;;;1.50;99.90;;;;;;5062797;28;20065;-72
2022/01/17 09:00:37;;;;;;;;;;;1.50;99.90;;;;;;5063235;28;19920;-71
2022/01/17 09:03:04;;;;;;;;;;;1.50;99.90;;;;;;5063077;28;19928;-72
2022/01/17 09:05:31;;;;;;;;;;;1.50;99.90;;;;;;5066121;28;20235;-71
2022/01/17 09:07:57;;;;;;;;;;;1.50;99.90;;;;;;5066868;28;19920;-71
2022/01/17 09:10:25;;;;;;;;;;;1.50;99.90;;;;;;5066180;28;20220;-71
2022/01/17 09:12:52;;;;;;;;;;;1.60;99.90;;;;;;5066213;28;19920;-71
2022/01/17 09:15:19;;;;;;;;;;;1.60;99.90;;;;;;5065419;28;19920;-71
2022/01/17 09:17:45;;;;;;;;;;;1.60;99.90;;;;;;5066575;28;19966;-71
2022/01/17 09:20:12;;;;;;;;;;;1.60;99.90;;;;;;5066034;28;19983;-71
2022/01/17 09:22:39;;;;;;;;;;;1.60;99.90;;;;;;5066405;28;19921;-71
2022/01/17 09:25:06;;;;;;;;;;;1.50;99.90;;;;;;5065488;28;19929;-71
2022/01/17 09:27:34;;;;;;;;;;;1.60;99.90;;;;;;5061230;28;19927;-71
2022/01/17 09:30:01;;;;;;;;;;;1.70;99.90;;;;;;5047116;28;19951;-71
2022/01/17 09:32:28;;;;;;;;;;;1.70;99.90;;;;;;5046028;28;20124;-71
2022/01/17 09:34:54;;;;;;;;;;;1.80;99.90;;;;;;5045642;28;20271;-71
2022/01/17 09:37:22;;;;;;;;;;;1.80;99.90;;;;;;5045623;28;19921;-71
2022/01/17 09:39:48;;;;;;;;;;;1.80;99.90;;;;;;5046014;28;19953;-71
2022/01/17 09:42:16;;;;;;;;;;;1.80;99.90;;;;;;5045939;28;19944;-71
2022/01/17 09:44:50;;;;;;;;;;;1.90;99.90;;;;;;5058173;28;19988;-71
2022/01/17 09:47:17;;;;;;;;;;;1.90;99.90;;;;;;5064862;28;19927;-71
2022/01/17 09:49:51;;;;;;;;;;;1.90;99.90;;;;;;5065580;28;19928;-72
2022/01/17 09:55:08;;;;;;;;;;;1.90;99.90;;;;;;5048775;28;20222;-72
2022/01/17 09:57:38;;;;;;;;;;;1.90;99.90;;;;;;5065466;28;19927;-72
2022/01/17 10:00:08;;;;;;;;;;;1.90;99.90;;;;;;5064749;28;20216;-73
2022/01/17 10:02:35;;;;;;;;;;;1.90;99.90;;;;;;5065413;28;19920;-73
2022/01/17 10:05:08;;;;;;;;;;;1.90;99.90;;;;;;5064725;28;19966;-73
2022/01/17 10:07:53;;;;;;;;;;;1.90;99.90;;;;;;5064892;28;19996;-73
2022/01/17 10:10:33;;;;;;;;;;;1.80;99.90;;;;;;5065958;28;19921;-72
2022/01/17 10:13:04;;;;;;;;;;;1.90;99.90;;;;;;5065407;28;19987;-73
2022/01/17 10:15:43;;;;;;;;;;;1.90;99.90;;;;;;5063957;28;19927;-73
2022/01/17 10:18:22;;;;;;;;;;;1.90;99.90;;;;;;5065144;28;19921;-73
2022/01/17 10:20:54;;;;;;;;;;;2.00;99.90;;;;;;5065457;28;19942;-73
2022/01/17 10:23:42;;;;;;;;;;;2.00;99.90;;;;;;5065304;28;19921;-73
2022/01/17 10:26:18;;;;;;;;;;;2.10;99.90;;;;;;5065230;28;19928;-72
2022/01/17 10:29:06;;;;;;;;;;;2.00;99.90;;;;;;5064717;28;20115;-73
2022/01/17 10:37:07;;;;;;;;;;;2.00;99.90;;;;;;5063944;28;19954;-73
2022/01/17 10:39:35;;;;;;;;;;;2.00;99.90;;;;;;5065323;28;19927;-73
2022/01/17 10:42:21;;;;;;;;;;;2.00;99.90;;;;;;5063895;28;19927;-73
2022/01/17 10:44:48;;;;;;;;;;;2.10;99.90;;;;;;5064161;28;20251;-73
2022/01/17 10:47:20;;;;;;;;;;;2.10;99.90;;;;;;5062639;28;19933;-73
2022/01/17 10:49:47;;;;;;;;;;;2.10;99.90;;;;;;5064622;28;19921;-73
2022/01/17 10:52:26;;;;;;;;;;;2.10;99.90;;;;;;5064596;28;20115;-73
2022/01/17 10:54:55;;;;;;;;;;;2.10;99.90;;;;;;5064431;28;19921;-73
2022/01/17 10:57:22;;;;;;;;;;;2.00;99.90;;;;;;5064718;28;19946;-73
2022/01/17 10:59:51;;;;;;;;;;;2.10;99.90;;;;;;5064709;28;19928;-73
2022/01/17 11:02:18;;;;;;;;;;;2.10;99.90;;;;;;5064534;28;19924;-73
2022/01/17 11:04:49;;;;;;;;;;;2.10;99.90;;;;;;5064253;28;19921;-73
2022/01/17 11:07:15;;;;;;;;;;;2.10;99.90;;;;;;5064276;28;20097;-73
2022/01/17 11:09:42;;;;;;;;;;;2.10;99.90;;;;;;5064462;28;19921;-73
2022/01/17 11:12:10;;;;;;;;;;;2.10;99.90;;;;;;5063552;28;19924;-72
2022/01/17 11:14:37;;;;;;;;;;;2.10;99.90;;;;;;5063763;28;20205;-73
2022/01/17 11:17:10;;;;;;;;;;;2.10;99.90;;;;;;5064034;28;20263;-73
2022/01/17 11:22:22;;;;;;;;;;;2.10;99.90;;;;;;5064011;28;19923;-72
2022/01/17 11:24:49;;;;;;;;;;;2.20;99.90;;;;;;5064150;28;19928;-73
2022/01/17 11:27:15;;;;;;;;;;;2.20;99.90;;;;;;5063226;28;19927;-73
2022/01/17 11:29:42;;;;;;;;;;;2.20;99.90;;;;;;5064227;28;19921;-73
2022/01/17 11:32:08;;;;;;;;;;;2.20;99.90;;;;;;5064145;28;20171;-73
2022/01/17 11:34:35;;;;;;;;;;;2.20;99.90;;;;;;5064124;28;19921;-73
2022/01/17 11:37:02;;;;;;;;;;;2.20;99.90;;;;;;5063975;28;19925;-73
2022/01/17 11:39:30;;;;;;;;;;;2.20;99.90;;;;;;5064029;28;19921;-73
2022/01/17 11:41:56;;;;;;;;;;;2.30;99.90;;;;;;5063790;28;19921;-73
2022/01/17 11:44:32;;;;;;;;;;;2.30;99.90;;;;;;5063409;28;19921;-73
2022/01/17 11:46:59;;;;;;;;;;;2.30;99.90;;;;;;5063743;28;20208;-72
2022/01/17 11:49:26;;;;;;;;;;;2.30;99.90;;;;;;5059058;28;19929;-73
2022/01/17 11:51:53;;;;;;;;;;;2.30;99.90;;;;;;5043748;28;19921;-73
2022/01/17 11:54:21;;;;;;;;;;;2.30;99.90;;;;;;5049099;28;19920;-72
2022/01/17 11:56:50;;;;;;;;;;;2.30;99.90;;;;;;5063730;28;19927;-72
2022/01/17 11:59:36;;;;;;;;;;;2.30;99.90;;;;;;5063767;28;20172;-74
2022/01/17 12:02:21;;;;;;;;;;;2.30;99.90;;;;;;5063752;28;19921;-73
2022/01/17 12:05:06;;;;;;;;;;;2.40;99.90;;;;;;5063438;28;19991;-73
2022/01/17 12:07:36;;;;;;;;;;;2.40;99.90;;;;;;5063334;28;19928;-73
2022/01/17 12:10:07;;;;;;;;;;;2.40;99.90;;;;;;5063719;28;20115;-73
2022/01/17 12:12:35;;;;;;;;;;;2.50;99.90;;;;;;5062376;28;19921;-73
2022/01/17 12:15:06;;;;;;;;;;;2.50;99.90;;;;;;5063224;28;19942;-73
2022/01/17 12:17:35;;;;;;;;;;;2.50;99.90;;;;;;5063707;28;19921;-73
2022/01/17 12:20:19;;;;;;;;;;;2.50;99.90;;;;;;5063543;28;19921;-72
2022/01/17 12:22:50;;;;;;;;;;;2.50;99.90;;;;;;5063342;28;20258;-75
2022/01/17 12:25:34;;;;;;;;;;;2.50;99.90;;;;;;5063423;28;19920;-73
2022/01/17 12:28:16;;;;;;;;;;;2.50;99.90;;;;;;5063635;28;20259;-73
2022/01/17 12:30:46;;;;;;;;;;;2.60;99.90;;;;;;5063025;28;19921;-73
2022/01/17 12:33:13;;;;;;;;;;;2.60;99.90;;;;;;5063520;28;19920;-74
2022/01/17 12:35:45;;;;;;;;;;;2.70;99.90;;;;;;5063151;28;19921;-73
2022/01/17 12:38:15;;;;;;;;;;;2.70;99.90;;;;;;5060807;28;19952;-73
2022/01/17 12:40:43;;;;;;;;;;;2.80;99.90;;;;;;5067705;28;19921;-73
2022/01/17 12:43:11;;;;;;;;;;;2.90;99.90;;;;;;5064878;28;19920;-73
2022/01/17 12:45:39;;;;;;;;;;;2.80;99.90;;;;;;5066337;28;20151;-73
2022/01/17 12:48:08;;;;;;;;;;;2.80;99.90;;;;;;5067219;28;19920;-74
2022/01/17 12:50:36;;;;;;;;;;;2.70;99.90;;;;;;5067156;28;20047;-73
2022/01/17 12:53:04;;;;;;;;;;;2.70;99.90;;;;;;5064547;28;19920;-74
2022/01/17 12:55:35;;;;;;;;;;;2.70;99.90;;;;;;5064930;28;19929;-75
2022/01/17 12:58:09;;;;;;;;;;;2.70;99.90;;;;;;5066532;28;19921;-74
2022/01/17 13:00:35;;;;;;;;;;;2.70;99.90;;;;;;5051195;28;20107;-73
2022/01/17 13:03:02;;;;;;;;;;;2.70;99.90;;;;;;5066833;28;19921;-72
2022/01/17 13:05:31;;;;;;;;;;;2.80;99.90;;;;;;5063359;28;19939;-73
2022/01/17 13:08:02;;;;;;;;;;;2.80;99.90;;;;;;5044650;28;19921;-73
2022/01/17 13:10:28;;;;;;;;;;;2.90;99.90;;;;;;5054429;28;19956;-73
2022/01/17 13:12:57;;;;;;;;;;;2.80;99.90;;;;;;5066291;28;19943;-73
2022/01/17 13:15:24;;;;;;;;;;;2.80;99.90;;;;;;5065669;28;19963;-73
2022/01/17 13:18:00;;;;;;;;;;;2.80;99.90;;;;;;5060256;28;19921;-73
2022/01/17 13:20:28;;;;;;;;;;;2.80;99.90;;;;;;5065229;28;20235;-72
2022/01/17 13:23:01;;;;;;;;;;;2.80;99.90;;;;;;5051491;28;19928;-72
2022/01/17 13:25:28;;;;;;;;;;;2.80;99.90;;;;;;5060360;28;20120;-72
2022/01/17 13:27:57;;;;;;;;;;;2.70;99.90;;;;;;5052779;28;19943;-72
2022/01/17 13:30:29;;;;;;;;;;;2.70;99.90;;;;;;5049325;28;19939;-72
2022/01/17 13:32:56;;;;;;;;;;;2.70;99.90;;;;;;5046049;28;19925;-72
2022/01/17 13:35:23;;;;;;;;;;;2.70;99.90;;;;;;5063127;28;19921;-72
2022/01/17 13:37:51;;;;;;;;;;;2.60;99.90;;;;;;5066187;28;19927;-72
2022/01/17 13:40:21;;;;;;;;;;;2.60;99.90;;;;;;5065989;28;19967;-72
2022/01/17 13:42:52;;;;;;;;;;;2.60;99.90;;;;;;5066018;28;19921;-72
2022/01/17 13:45:35;;;;;;;;;;;2.60;99.90;;;;;;5056172;28;19951;-72
2022/01/17 13:48:03;;;;;;;;;;;2.60;99.90;;;;;;5059061;28;19920;-74
2022/01/17 13:50:29;;;;;;;;;;;2.60;99.90;;;;;;5062063;28;19929;-72
2022/01/17 13:52:56;;;;;;;;;;;2.60;99.90;;;;;;5064341;28;19921;-72
2022/01/17 13:55:31;;;;;;;;;;;2.60;99.90;;;;;;5047661;28;20205;-73
2022/01/17 13:57:59;;;;;;;;;;;2.60;99.90;;;;;;5064427;28;19951;-72
2022/01/17 14:00:32;;;;;;;;;;;2.70;99.90;;;;;;5064772;28;19921;-73
2022/01/17 14:03:01;;;;;;;;;;;2.70;99.90;;;;;;5054164;28;19924;-71
2022/01/17 14:05:32;;;;;;;;;;;2.70;99.90;;;;;;5048264;28;19921;-71
2022/01/17 14:08:10;;;;;;;;;;;2.70;99.90;;;;;;5049151;28;19924;-72
2022/01/17 14:10:57;;;;;;;;;;;2.70;99.90;;;;;;5064549;28;19921;-71
2022/01/17 14:13:27;;;;;;;;;;;2.80;99.90;;;;;;5062277;28;21423;-71
2022/01/17 14:15:54;;;;;;;;;;;2.80;99.90;;;;;;5047301;28;19921;-71
2022/01/17 14:18:20;;;;;;;;;;;2.80;99.90;;;;;;5045376;28;20093;-71
2022/01/17 14:20:51;;;;;;;;;;;2.80;99.90;;;;;;5059738;28;19955;-71
2022/01/17 14:23:25;;;;;;;;;;;2.70;99.90;;;;;;5045098;28;19925;-73
2022/01/17 14:25:53;;;;;;;;;;;2.70;99.90;;;;;;5054061;28;19921;-71
2022/01/17 14:28:20;;;;;;;;;;;2.70;99.90;;;;;;5064852;28;19921;-71
2022/01/17 14:30:49;;;;;;;;;;;2.70;99.90;;;;;;5062574;28;19935;-71
2022/01/17 14:33:17;;;;;;;;;;;2.70;99.90;;;;;;5063823;28;19920;-71
2022/01/17 14:36:11;;;;;;;;;;;2.70;99.90;;;;;;5044720;28;20197;-71
2022/01/17 14:38:42;;;;;;;;;;;2.60;99.90;;;;;;5031226;28;19921;-72
2022/01/17 14:41:14;;;;;;;;;;;2.70;99.90;;;;;;5064972;28;20089;-72
2022/01/17 14:43:41;;;;;;;;;;;2.60;99.90;;;;;;5062206;28;20240;-72
2022/01/17 14:46:08;;;;;;;;;;;2.60;99.90;;;;;;5064618;28;19920;-72
2022/01/17 14:48:35;;;;;;;;;;;2.60;99.90;;;;;;5058382;28;19948;-72
2022/01/17 14:51:20;;;;;;;;;;;2.60;99.90;;;;;;5064295;28;19921;-72
2022/01/17 14:53:49;;;;;;;;;;;2.60;99.90;;;;;;5062590;28;19925;-71
2022/01/17 15:01:49;;;;;;;;;;;2.50;99.90;;;;;;5049274;28;19916;-73
2022/01/17 15:04:15;;;;;;;;;;;2.60;99.90;;;;;;5051819;28;19927;-73
2022/01/17 15:06:44;;;;;;;;;;;2.60;99.90;;;;;;5060129;28;20116;-71
2022/01/17 15:09:18;;;;;;;;;;;2.60;99.90;;;;;;5063446;28;19920;-73